createdAt,value
2023-02-19T00:00:02.000Z,100.07
2023-02-19T00:05:02.000Z,99.90
2023-02-19T00:10:03.000Z,99.90
2023-02-19T00:15:02.000Z,99.76
2023-02-19T00:20:02.000Z,99.76
2023-02-19T00:25:02.000Z,99.79
2023-02-19T00:30:02.000Z,99.71
2023-02-19T00:35:02.000Z,99.71
2023-02-19T00:40:02.000Z,99.74
2023-02-19T00:45:02.000Z,99.82
2023-02-19T00:50:02.000Z,98.69
2023-02-19T00:55:02.000Z,98.87
2023-02-19T01:00:03.000Z,98.61
2023-02-19T01:05:02.000Z,99.01
2023-02-19T01:10:02.000Z,98.75
2023-02-19T01:15:02.000Z,98.78
2023-02-19T01:20:02.000Z,98.78
2023-02-19T01:25:02.000Z,98.80
2023-02-19T01:30:02.000Z,98.87
2023-02-19T01:35:02.000Z,98.84
2023-02-19T01:40:01.000Z,99.07
2023-02-19T01:45:02.000Z,99.27
2023-02-19T01:50:02.000Z,99.45
2023-02-19T01:55:02.000Z,99.88
2023-02-19T02:00:02.000Z,99.21
2023-02-19T02:05:03.000Z,100.20
2023-02-19T02:10:02.000Z,100.37
2023-02-19T02:15:02.000Z,99.72
2023-02-19T02:20:02.000Z,100.83
2023-02-19T02:25:03.000Z,101.21
2023-02-19T02:30:02.000Z,101.30
2023-02-19T02:35:02.000Z,101.21
2023-02-19T02:40:03.000Z,101.21
2023-02-19T02:45:02.000Z,99.88
2023-02-19T02:50:02.000Z,100.00
2023-02-19T02:55:02.000Z,100.06
2023-02-19T03:00:02.000Z,101.33
2023-02-19T03:05:02.000Z,101.43
2023-02-19T03:10:03.000Z,100.34
2023-02-19T03:15:02.000Z,100.51
2023-02-19T03:20:02.000Z,101.24
2023-02-19T03:25:02.000Z,102.51
2023-02-19T03:30:02.000Z,102.40
2023-02-19T03:35:02.000Z,101.12
2023-02-19T03:40:02.000Z,100.56
2023-02-19T03:45:02.000Z,100.48
2023-02-19T03:50:02.000Z,100.68
2023-02-19T03:55:02.000Z,100.86
2023-02-19T04:00:02.000Z,100.97
2023-02-19T04:05:02.000Z,101.35
2023-02-19T04:10:02.000Z,101.71
2023-02-19T04:15:03.000Z,101.93
2023-02-19T04:20:02.000Z,101.96
2023-02-19T04:25:02.000Z,101.68
2023-02-19T04:30:02.000Z,101.39
2023-02-19T04:35:02.000Z,101.03
2023-02-19T04:40:02.000Z,100.80
2023-02-19T04:45:02.000Z,100.40
2023-02-19T04:50:02.000Z,100.19
2023-02-19T04:55:02.000Z,100.08
2023-02-19T05:00:02.000Z,100.25
2023-02-19T05:05:02.000Z,100.29
2023-02-19T05:10:02.000Z,100.25
2023-02-19T05:15:02.000Z,100.43
2023-02-19T05:20:02.000Z,100.54
2023-02-19T05:25:02.000Z,100.64
2023-02-19T05:30:02.000Z,100.58
2023-02-19T05:35:02.000Z,100.60
2023-02-19T05:40:03.000Z,100.54
2023-02-19T05:45:02.000Z,100.53
2023-02-19T05:50:02.000Z,100.41
2023-02-19T05:55:03.000Z,100.27
2023-02-19T06:00:03.000Z,100.12
2023-02-19T06:05:02.000Z,99.94
2023-02-19T06:10:03.000Z,99.94
2023-02-19T06:15:03.000Z,99.91
2023-02-19T06:20:02.000Z,99.94
2023-02-19T06:25:03.000Z,100.18
2023-02-19T06:30:02.000Z,100.24
2023-02-19T06:35:02.000Z,100.41
2023-02-19T06:40:02.000Z,100.56
2023-02-19T06:45:03.000Z,100.47
2023-02-19T06:50:03.000Z,100.25
2023-02-19T06:55:02.000Z,99.90
2023-02-19T07:00:04.000Z,99.66
2023-02-19T07:05:03.000Z,99.37
2023-02-19T07:10:02.000Z,98.98
2023-02-19T07:15:02.000Z,98.71
2023-02-19T07:20:02.000Z,98.14
2023-02-19T07:25:03.000Z,97.53
2023-02-19T07:30:05.000Z,97.06
2023-02-19T07:35:03.000Z,96.64
2023-02-19T07:40:02.000Z,96.49
2023-02-19T07:45:02.000Z,96.58
2023-02-19T07:50:02.000Z,96.64
2023-02-19T07:55:02.000Z,96.54
2023-02-19T08:00:03.000Z,96.46
2023-02-19T08:05:03.000Z,95.78
2023-02-19T08:10:02.000Z,95.32
2023-02-19T08:15:02.000Z,93.40
2023-02-19T08:20:02.000Z,93.61
2023-02-19T08:25:02.000Z,90.70
2023-02-19T08:30:02.000Z,90.27
2023-02-19T08:35:03.000Z,89.64
2023-02-19T08:40:02.000Z,89.21
2023-02-19T08:45:04.000Z,88.47
2023-02-19T08:50:02.000Z,88.70
2023-02-19T08:55:02.000Z,90.12
2023-02-19T09:00:04.000Z,87.93
2023-02-19T09:05:03.000Z,88.11
2023-02-19T09:10:02.000Z,87.45
2023-02-19T09:15:02.000Z,86.61
2023-02-19T09:20:02.000Z,86.39
2023-02-19T09:25:02.000Z,86.33
2023-02-19T09:30:02.000Z,86.09
2023-02-19T09:35:03.000Z,86.10
2023-02-19T09:40:02.000Z,85.75
2023-02-19T09:45:02.000Z,85.15
2023-02-19T09:50:03.000Z,84.84
2023-02-19T09:55:02.000Z,84.02
2023-02-19T10:00:02.000Z,83.87
2023-02-19T10:05:02.000Z,82.97
2023-02-19T10:10:03.000Z,82.79
2023-02-19T10:15:03.000Z,81.70
2023-02-19T10:20:03.000Z,79.49
2023-02-19T10:25:02.000Z,78.04
2023-02-19T10:30:02.000Z,77.59
2023-02-19T10:35:02.000Z,76.34
2023-02-19T10:40:02.000Z,75.31
2023-02-19T10:45:02.000Z,74.81
2023-02-19T10:50:02.000Z,74.27
2023-02-19T10:55:02.000Z,74.56
2023-02-19T11:00:04.000Z,74.18
2023-02-19T11:05:03.000Z,74.96
2023-02-19T11:10:02.000Z,76.49
2023-02-19T11:15:03.000Z,76.14
2023-02-19T11:20:02.000Z,75.40
2023-02-19T11:25:03.000Z,75.79
2023-02-19T11:30:03.000Z,75.52
2023-02-19T11:35:02.000Z,75.59
2023-02-19T11:40:03.000Z,75.61
2023-02-19T11:45:03.000Z,75.93
2023-02-19T11:50:02.000Z,76.19
2023-02-19T11:55:02.000Z,77.65
2023-02-19T12:00:03.000Z,77.98
2023-02-19T12:05:02.000Z,77.73
2023-02-19T12:10:02.000Z,77.35
2023-02-19T12:15:03.000Z,77.68
2023-02-19T12:20:02.000Z,77.34
2023-02-19T12:25:03.000Z,77.98
2023-02-19T12:30:02.000Z,78.04
2023-02-19T12:35:02.000Z,77.98
2023-02-19T12:40:02.000Z,78.24
2023-02-19T12:45:02.000Z,76.52
2023-02-19T12:50:02.000Z,76.95
2023-02-19T12:55:02.000Z,76.23
2023-02-19T13:00:03.000Z,76.41
2023-02-19T13:05:03.000Z,76.83
2023-02-19T13:10:02.000Z,77.08
2023-02-19T13:15:02.000Z,77.15
2023-02-19T13:20:02.000Z,77.61
2023-02-19T13:25:02.000Z,78.24
2023-02-19T13:30:02.000Z,78.08
2023-02-19T13:35:03.000Z,79.01
2023-02-19T13:40:02.000Z,79.08
2023-02-19T13:45:02.000Z,79.16
2023-02-19T13:50:04.000Z,79.66
2023-02-19T13:55:03.000Z,80.32
2023-02-19T14:00:02.000Z,79.24
2023-02-19T14:05:02.000Z,79.57
2023-02-19T14:10:03.000Z,79.24
2023-02-19T14:15:02.000Z,80.19
2023-02-19T14:20:03.000Z,79.78
2023-02-19T14:25:03.000Z,79.91
2023-02-19T14:30:03.000Z,79.32
2023-02-19T14:35:03.000Z,79.11
2023-02-19T14:40:02.000Z,79.91
2023-02-19T14:45:03.000Z,78.95
2023-02-19T14:50:02.000Z,79.24
2023-02-19T14:55:02.000Z,79.62
2023-02-19T15:00:03.000Z,78.97
2023-02-19T15:05:02.000Z,80.20
2023-02-19T15:10:03.000Z,80.20
2023-02-19T15:15:02.000Z,79.88
2023-02-19T15:20:02.000Z,79.92
2023-02-19T15:25:02.000Z,79.75
2023-02-19T15:30:03.000Z,79.98
2023-02-19T15:35:02.000Z,78.58
2023-02-19T15:40:03.000Z,78.77
2023-02-19T15:45:02.000Z,78.68
2023-02-19T15:50:02.000Z,79.64
2023-02-19T15:55:04.000Z,80.07
2023-02-19T16:00:02.000Z,80.01
2023-02-19T16:05:02.000Z,79.76
2023-02-19T16:10:02.000Z,80.25
2023-02-19T16:15:03.000Z,80.18
2023-02-19T16:20:03.000Z,81.01
2023-02-19T16:25:02.000Z,80.69
2023-02-19T16:30:02.000Z,81.00
2023-02-19T16:35:02.000Z,81.48
2023-02-19T16:40:03.000Z,81.97
2023-02-19T16:45:02.000Z,81.36
2023-02-19T16:50:02.000Z,81.76
2023-02-19T16:55:02.000Z,82.04
2023-02-19T17:00:02.000Z,82.15
2023-02-19T17:05:02.000Z,82.91
2023-02-19T17:10:02.000Z,82.59
2023-02-19T17:15:02.000Z,82.54
2023-02-19T17:20:02.000Z,82.92
2023-02-19T17:25:02.000Z,83.01
2023-02-19T17:30:02.000Z,83.07
2023-02-19T17:35:02.000Z,83.12
2023-02-19T17:40:03.000Z,83.31
2023-02-19T17:45:02.000Z,82.75
2023-02-19T17:50:02.000Z,83.19
2023-02-19T17:55:02.000Z,83.13
2023-02-19T18:00:03.000Z,82.84
2023-02-19T18:05:03.000Z,82.55
2023-02-19T18:10:02.000Z,82.32
2023-02-19T18:15:03.000Z,82.45
2023-02-19T18:20:03.000Z,82.26
2023-02-19T18:25:03.000Z,82.41
2023-02-19T18:30:03.000Z,82.28
2023-02-19T18:35:03.000Z,82.39
2023-02-19T18:40:03.000Z,82.41
2023-02-19T18:45:03.000Z,82.23
2023-02-19T18:50:03.000Z,83.71
2023-02-19T18:55:03.000Z,83.23
2023-02-19T19:00:03.000Z,83.28
2023-02-19T19:05:03.000Z,83.07
2023-02-19T19:10:03.000Z,83.74
2023-02-19T19:15:03.000Z,83.86
2023-02-19T19:20:02.000Z,84.10
2023-02-19T19:25:03.000Z,84.64
2023-02-19T19:30:03.000Z,85.07
2023-02-19T19:35:03.000Z,84.93
2023-02-19T19:40:03.000Z,85.84
2023-02-19T19:45:02.000Z,85.47
2023-02-19T19:50:02.000Z,85.52
2023-02-19T19:55:02.000Z,86.06
2023-02-19T20:00:03.000Z,85.63
2023-02-19T20:05:02.000Z,85.82
2023-02-19T20:10:02.000Z,86.27
2023-02-19T20:15:02.000Z,85.84
2023-02-19T20:20:03.000Z,85.68
2023-02-19T20:25:02.000Z,85.41
2023-02-19T20:30:03.000Z,84.74
2023-02-19T20:35:03.000Z,84.74
2023-02-19T20:40:02.000Z,85.15
2023-02-19T20:45:03.000Z,85.02
2023-02-19T20:50:02.000Z,85.63
2023-02-19T20:55:03.000Z,85.42
2023-02-19T21:00:04.000Z,85.13
2023-02-19T21:05:03.000Z,85.26
2023-02-19T21:10:03.000Z,84.75
2023-02-19T21:15:03.000Z,84.48
2023-02-19T21:20:03.000Z,84.54
2023-02-19T21:25:03.000Z,83.74
2023-02-19T21:30:03.000Z,84.13
2023-02-19T21:35:03.000Z,84.08
2023-02-19T21:40:03.000Z,84.13
2023-02-19T21:45:03.000Z,83.44
2023-02-19T21:50:03.000Z,83.60
2023-02-19T21:55:03.000Z,83.23
2023-02-19T22:00:03.000Z,83.07
2023-02-19T22:05:03.000Z,82.62
2023-02-19T22:10:03.000Z,82.56
2023-02-19T22:15:03.000Z,83.54
2023-02-19T22:20:03.000Z,83.19
2023-02-19T22:25:03.000Z,83.94
2023-02-19T22:30:03.000Z,84.74
2023-02-19T22:35:03.000Z,85.63
2023-02-19T22:40:03.000Z,86.50
2023-02-19T22:45:03.000Z,86.74
2023-02-19T22:50:03.000Z,85.88
2023-02-19T22:55:03.000Z,86.25
2023-02-19T23:00:03.000Z,86.72
2023-02-19T23:05:03.000Z,86.47
2023-02-19T23:10:03.000Z,87.67
2023-02-19T23:15:03.000Z,87.51
2023-02-19T23:20:03.000Z,86.31
2023-02-19T23:25:03.000Z,86.12
2023-02-19T23:30:03.000Z,85.59
2023-02-19T23:35:03.000Z,86.96
2023-02-19T23:40:03.000Z,87.04
2023-02-19T23:45:03.000Z,87.04
2023-02-19T23:50:03.000Z,86.72
2023-02-19T23:55:03.000Z,86.72
